Time;durP1;ratioP1;P1;durP2;ratioP2;P2;SDS_P1;SDS_P2;PMS_P1;PMS_P2;Temp;Humidity;BMP_temperature;BMP_pressure;BME280_temperature;BME280_humidity;BME280_pressure;Samples;Min_cycle;Max_cycle;Signal;HPM_P1;HPM_P2
2022/07/19 00:00:49;;;;;;;8.33;3.33;;;;;;;17.64;64.69;100791.91;2860239;81;21076;-96
2022/07/19 00:04:51;;;;;;;7.10;3.05;;;;;;;17.62;64.82;100793.92;2887702;80;20964;-95
2022/07/19 00:08:53;;;;;;;3.83;2.30;;;;;;;17.59;64.98;100790.70;2874079;81;22899;-94
2022/07/19 00:12:54;;;;;;;9.20;3.85;;;;;;;17.49;65.35;100791.67;2859746;81;21595;-90
2022/07/19 00:16:56;;;;;;;10.55;4.00;;;;;;;17.34;65.05;100795.42;2858557;81;21044;-92
2022/07/19 00:20:57;;;;;;;6.55;2.15;;;;;;;17.25;65.25;100797.20;2796884;82;20987;-92
2022/07/19 00:24:59;;;;;;;4.25;2.85;;;;;;;17.14;66.40;100801.52;2857100;81;20985;-95
2022/07/19 00:29:02;;;;;;;4.83;3.08;;;;;;;17.06;66.24;100802.78;2826780;81;21004;-91
2022/07/19 00:33:08;;;;;;;9.68;4.42;;;;;;;17.01;67.54;100787.14;2854134;81;21014;-95
2022/07/19 00:37:07;;;;;;;4.47;2.92;;;;;;;16.88;67.67;100779.42;2835634;81;20978;-93
2022/07/19 00:41:09;;;;;;;5.15;2.70;;;;;;;16.86;67.81;100782.77;2876597;81;21004;-92
2022/07/19 00:45:11;;;;;;;10.63;2.83;;;;;;;16.81;68.95;100778.36;2860298;81;21066;-94
2022/07/19 00:49:12;;;;;;;7.00;2.65;;;;;;;16.83;68.70;100779.05;2879264;81;21033;-93
2022/07/19 00:53:15;;;;;;;10.68;4.05;;;;;;;16.90;68.63;100774.77;2856883;81;21005;-91
2022/07/19 00:57:20;;;;;;;6.42;3.62;;;;;;;16.94;68.47;100777.97;2854666;81;21052;-89
2022/07/19 01:01:22;;;;;;;6.53;2.77;;;;;;;16.97;68.05;100777.65;2814398;83;20999;-90
2022/07/19 01:05:24;;;;;;;6.65;3.67;;;;;;;16.96;68.22;100778.65;2827811;83;21006;-91
2022/07/19 01:09:25;;;;;;;9.00;3.33;;;;;;;16.80;68.60;100778.02;2764955;84;21189;-94
2022/07/19 01:13:27;;;;;;;5.85;3.40;;;;;;;16.64;68.80;100783.59;2799423;84;21012;-95
2022/07/19 01:17:29;;;;;;;8.20;4.20;;;;;;;16.51;69.29;100783.97;2768102;83;21020;-94
2022/07/19 01:21:31;;;;;;;8.50;3.72;;;;;;;16.47;69.30;100783.08;2793439;83;21010;-91
2022/07/19 01:25:35;;;;;;;11.12;3.52;;;;;;;16.51;69.31;100789.86;2765349;83;21028;-90
2022/07/19 01:29:38;;;;;;;6.97;3.72;;;;;;;16.54;69.37;100778.30;2751275;85;21014;-94
2022/07/19 01:33:45;;;;;;;6.25;2.92;;;;;;;16.55;69.42;100788.03;2768824;83;21555;-94
2022/07/19 01:37:47;;;;;;;16.77;7.40;;;;;;;16.53;69.29;100783.83;2776933;84;21084;-92
2022/07/19 01:41:49;;;;;;;17.80;7.42;;;;;;;16.50;70.39;100782.77;2780090;83;21614;-93
2022/07/19 01:45:53;;;;;;;18.30;5.25;;;;;;;16.44;70.51;100773.99;2783328;83;20995;-92
2022/07/19 01:49:55;;;;;;;7.58;2.70;;;;;;;16.37;71.17;100772.41;2781245;83;21576;-90
2022/07/19 01:53:56;;;;;;;5.75;3.22;;;;;;;16.30;72.45;100774.02;2769307;84;21160;-91
2022/07/19 01:57:58;;;;;;;8.55;3.58;;;;;;;16.22;73.33;100761.36;2784115;83;21160;-94
2022/07/19 02:02:00;;;;;;;8.25;3.42;;;;;;;16.24;72.53;100764.73;2826551;82;20978;-90
2022/07/19 02:06:01;;;;;;;5.40;3.72;;;;;;;16.34;72.26;100757.47;2844849;82;21026;-94
2022/07/19 02:10:06;;;;;;;19.07;5.55;;;;;;;16.45;72.10;100759.09;2810252;82;21062;-92
2022/07/19 02:14:09;;;;;;;4.05;2.62;;;;;;;16.54;72.48;100768.06;2841136;82;21517;-92
2022/07/19 02:18:10;;;;;;;18.80;4.30;;;;;;;16.50;72.15;100772.89;2818866;82;21089;-94
2022/07/19 02:22:12;;;;;;;20.70;5.50;;;;;;;16.42;71.94;100769.63;2859058;82;21533;-93
2022/07/19 02:26:13;;;;;;;8.98;4.12;;;;;;;16.31;72.22;100765.83;2840732;82;21070;-90
2022/07/19 02:30:17;;;;;;;6.33;2.65;;;;;;;16.28;73.10;100760.73;2829181;82;20998;-91
2022/07/19 02:34:18;;;;;;;8.48;3.37;;;;;;;16.17;73.03;100762.31;2829925;82;21007;-92
2022/07/19 02:38:20;;;;;;;6.05;2.80;;;;;;;16.21;72.82;100765.03;2878481;80;21049;-92
2022/07/19 02:42:21;;;;;;;6.33;3.83;;;;;;;16.22;72.56;100764.90;2897332;81;20987;-95
2022/07/19 02:46:23;;;;;;;9.45;3.00;;;;;;;16.29;72.08;100773.16;2849473;81;21047;-94
2022/07/19 02:50:25;;;;;;;8.28;4.35;;;;;;;16.32;71.71;100773.38;2780463;82;21031;-89
2022/07/19 02:54:26;;;;;;;7.97;4.08;;;;;;;16.34;71.21;100774.92;2783691;83;20999;-94
2022/07/19 02:58:28;;;;;;;6.83;4.03;;;;;;;16.32;71.21;100774.23;2799285;82;21035;-95
2022/07/19 03:02:31;;;;;;;6.90;3.40;;;;;;;16.33;71.48;100775.06;2885655;81;20987;-94
2022/07/19 03:06:32;;;;;;;9.90;3.67;;;;;;;16.34;71.81;100776.27;2875090;79;21045;-93
2022/07/19 03:10:34;;;;;;;76.10;14.95;;;;;;;16.37;72.03;100773.75;2799206;80;20990;-90
2022/07/19 03:14:36;;;;;;;116.82;20.12;;;;;;;16.35;73.20;100773.06;2894330;80;20990;-92
2022/07/19 03:18:37;;;;;;;271.32;54.70;;;;;;;16.22;74.34;100778.80;2881181;81;21014;-93
2022/07/19 03:22:39;;;;;;;162.00;34.58;;;;;;;16.16;74.63;100778.07;2901419;80;21007;-92
2022/07/19 03:26:41;;;;;;;174.45;37.60;;;;;;;16.22;74.56;100774.30;2865458;81;21002;-92
2022/07/19 03:30:44;;;;;;;240.28;44.50;;;;;;;16.34;74.27;100774.92;2832413;81;20994;-93
2022/07/19 03:34:45;;;;;;;90.55;19.23;;;;;;;16.44;73.94;100773.99;2907059;81;20939;-94
2022/07/19 03:38:47;;;;;;;29.00;8.15;;;;;;;16.56;73.66;100779.49;2909740;80;21050;-95
2022/07/19 03:42:48;;;;;;;15.80;6.30;;;;;;;16.65;73.41;100775.87;2876473;81;21022;-95
2022/07/19 03:46:50;;;;;;;20.32;5.78;;;;;;;16.67;73.32;100781.94;2894444;81;20979;-93
2022/07/19 03:50:52;;;;;;;7.42;3.83;;;;;;;16.72;73.27;100779.31;2879036;81;21021;-93
2022/07/19 03:54:53;;;;;;;8.43;3.65;;;;;;;16.64;73.15;100778.22;2876495;81;20979;-92
2022/07/19 03:58:55;;;;;;;7.42;4.60;;;;;;;16.65;73.94;100777.73;2881359;79;21010;-92
2022/07/19 04:02:56;;;;;;;7.90;4.67;;;;;;;16.57;73.81;100777.16;2850930;81;21020;-93
2022/07/19 04:06:58;;;;;;;9.15;2.95;;;;;;;16.58;74.47;100778.84;2870178;81;20983;-90
2022/07/19 04:10:59;;;;;;;6.87;4.10;;;;;;;16.64;74.56;100784.93;2882035;80;20993;-92
2022/07/19 04:15:01;;;;;;;8.55;4.87;;;;;;;16.73;75.18;100789.05;2910407;80;21062;-91
2022/07/19 04:19:03;;;;;;;11.18;4.78;;;;;;;16.79;75.71;100787.91;2921861;80;20992;-91
2022/07/19 04:23:04;;;;;;;25.05;6.90;;;;;;;16.97;75.08;100795.97;2885914;80;20971;-90
2022/07/19 04:27:06;;;;;;;7.78;3.92;;;;;;;17.99;76.02;100786.52;2905238;80;21015;-92
2022/07/19 04:31:08;;;;;;;12.75;4.67;;;;;;;19.32;74.84;100783.50;2859679;80;21429;-92
2022/07/19 04:35:11;;;;;;;6.87;3.70;;;;;;;20.55;73.80;100781.33;2869660;79;20979;-89
2022/07/19 05:05:42;;;;;;;6.50;2.70;;;;;;;27.09;50.10;100764.14;2942194;80;21050;-64
2022/07/19 05:09:45;;;;;;;8.13;2.67;;;;;;;27.10;50.24;100760.34;2930867;80;20986;-64
2022/07/19 05:13:47;;;;;;;7.85;4.03;;;;;;;27.48;48.55;100755.77;2959020;80;21032;-64
2022/07/19 05:17:50;;;;;;;5.37;2.50;;;;;;;27.72;48.07;100751.33;2885387;81;20961;-65
2022/07/19 05:21:51;;;;;;;4.65;2.00;;;;;;;28.06;48.05;100753.07;2937319;80;20995;-63
2022/07/19 05:25:53;;;;;;;3.50;2.42;;;;;;;28.73;48.36;100753.18;2959067;80;20999;-65
2022/07/19 05:29:54;;;;;;;22.65;4.33;;;;;;;29.30;45.90;100749.05;2959040;80;20963;-64
2022/07/19 05:34:02;;;;;;;6.42;4.33;;;;;;;29.59;45.92;100744.50;2959081;80;20943;-64
2022/07/19 05:38:04;;;;;;;4.65;2.45;;;;;;;29.83;45.74;100736.20;2958815;80;20967;-64
2022/07/19 05:42:05;;;;;;;5.92;3.58;;;;;;;30.30;44.95;100729.70;2962043;80;21022;-67
2022/07/19 05:46:06;;;;;;;2.80;1.82;;;;;;;30.83;44.10;100734.95;2929458;80;20935;-64
2022/07/19 05:50:44;;;;;;;14.05;4.05;;;;;;;31.29;43.47;100732.08;2949950;79;20963;-65
2022/07/19 05:54:46;;;;;;;9.20;3.90;;;;;;;31.33;43.15;100735.16;3012211;78;20952;-64
2022/07/19 05:58:50;;;;;;;5.80;2.45;;;;;;;31.69;42.62;100732.02;2986601;79;20964;-64
2022/07/19 06:03:21;;;;;;;4.22;2.72;;;;;;;32.12;41.41;100734.98;2963330;79;20933;-65
2022/07/19 06:07:22;;;;;;;2.70;1.90;;;;;;;32.60;41.02;100726.34;2923519;81;20947;-66
2022/07/19 06:11:24;;;;;;;3.70;2.42;;;;;;;32.89;40.64;100723.30;2923083;80;20954;-64
2022/07/19 06:15:53;;;;;;;18.70;4.20;;;;;;;33.15;40.41;100724.81;2913488;82;20981;-67
2022/07/19 06:19:54;;;;;;;6.78;1.60;;;;;;;33.55;40.19;100717.58;2912878;80;20970;-66
2022/07/19 06:23:56;;;;;;;3.40;1.57;;;;;;;33.69;38.99;100720.11;2913443;81;20966;-66
2022/07/19 06:28:05;;;;;;;1.87;1.22;;;;;;;33.12;38.69;100715.70;2943286;81;20958;-65
2022/07/19 06:32:07;;;;;;;1.92;1.10;;;;;;;33.18;39.92;100710.49;2943499;81;21012;-65
2022/07/19 06:36:09;;;;;;;5.95;1.95;;;;;;;33.44;38.75;100707.91;2917291;81;20986;-65
2022/07/19 06:40:13;;;;;;;4.58;2.00;;;;;;;33.64;38.79;100710.45;2915014;81;21033;-67
2022/07/19 06:44:31;;;;;;;12.00;1.92;;;;;;;33.85;38.55;100707.75;2916523;81;20983;-65
2022/07/19 06:48:32;;;;;;;12.30;2.87;;;;;;;34.15;38.19;100707.53;2913195;81;20974;-66
2022/07/19 06:52:34;;;;;;;1.77;0.82;;;;;;;34.45;37.35;100708.66;2931151;80;21436;-65
2022/07/19 07:01:20;;;;;;;6.10;1.80;;;;;;;34.11;37.12;100709.19;2906241;82;20991;-66
2022/07/19 07:05:21;;;;;;;5.83;1.90;;;;;;;34.08;37.06;100707.79;2856397;81;21006;-65
2022/07/19 07:26:28;;;;;;;1.92;1.42;;;;;;;34.28;33.95;100690.43;2847750;82;21065;-65
2022/07/19 08:09:30;;;;;;;2.67;1.30;;;;;;;34.56;34.08;100688.22;2855703;79;21054;-69
2022/07/19 08:13:32;;;;;;;2.62;1.35;;;;;;;34.88;33.75;100687.06;2859847;82;20986;-66
2022/07/19 08:17:34;;;;;;;6.25;1.72;;;;;;;34.86;32.91;100692.05;2906759;80;21027;-67
2022/07/19 08:21:43;;;;;;;2.17;1.32;;;;;;;35.14;33.06;100687.58;2941750;81;20950;-69
2022/07/19 08:25:45;;;;;;;7.92;2.62;;;;;;;35.17;32.99;100690.58;2941508;80;20936;-66
2022/07/19 08:29:46;;;;;;;2.58;1.17;;;;;;;34.92;32.19;100685.12;2897466;81;20988;-65
2022/07/19 08:34:18;;;;;;;2.00;0.90;;;;;;;35.02;33.40;100674.89;2925315;80;21009;-68
2022/07/19 11:15:23;;;;;;;8.45;1.55;;;;;;;34.57;31.96;100586.31;2815323;81;67753;-92
2022/07/19 11:19:24;;;;;;;1.80;1.10;;;;;;;34.59;32.78;100578.60;2815061;83;20991;-91
2022/07/19 11:23:33;;;;;;;3.42;1.45;;;;;;;34.77;33.26;100576.30;2806039;83;21019;-91
2022/07/19 11:27:35;;;;;;;2.02;0.80;;;;;;;34.95;33.20;100572.09;2797200;83;21027;-92
2022/07/19 11:31:47;;;;;;;2.30;1.30;;;;;;;35.09;32.85;100568.19;2768250;82;21007;-91
2022/07/19 11:35:57;;;;;;;8.95;2.20;;;;;;;35.12;31.67;100566.80;2852998;83;21488;-92
2022/07/19 11:39:59;;;;;;;26.20;5.22;;;;;;;35.19;32.08;100567.30;2816577;82;21055;-92
2022/07/19 11:44:07;;;;;;;2.22;1.45;;;;;;;35.22;31.88;100565.92;2820374;83;21536;-90
2022/07/19 11:48:09;;;;;;;2.37;1.12;;;;;;;35.10;30.50;100562.92;2836328;81;21070;-92
2022/07/19 11:52:10;;;;;;;3.37;1.50;;;;;;;35.12;31.72;100557.94;2813025;83;21055;-92
2022/07/19 11:56:27;;;;;;;3.25;1.90;;;;;;;35.11;30.88;100557.67;2838056;82;20981;-89
2022/07/19 12:00:33;;;;;;;5.10;1.72;;;;;;;35.15;31.29;100557.94;2827091;82;21508;-93
2022/07/19 12:04:37;;;;;;;2.17;1.25;;;;;;;35.19;31.29;100552.09;2812598;83;21556;-93
2022/07/19 12:08:44;;;;;;;2.67;1.55;;;;;;;35.14;31.49;100547.42;2820495;83;21012;-92
2022/07/19 12:12:45;;;;;;;2.83;1.72;;;;;;;35.14;31.59;100548.80;2759504;82;21555;-91
2022/07/19 12:16:50;;;;;;;2.58;1.30;;;;;;;35.22;31.81;100535.51;2732464;84;20984;-92
2022/07/19 12:21:25;;;;;;;2.65;1.52;;;;;;;35.08;31.39;100536.13;2825473;82;20996;-92
2022/07/19 12:25:37;;;;;;;3.00;1.52;;;;;;;35.17;31.65;100535.79;2843103;82;21008;-93
2022/07/19 12:29:46;;;;;;;4.47;1.80;;;;;;;35.27;31.62;100534.89;2827619;83;21558;-93
2022/07/19 12:33:59;;;;;;;3.75;1.10;;;;;;;35.45;31.93;100532.02;2765506;84;20992;-92
2022/07/19 12:38:04;;;;;;;6.35;2.30;;;;;;;35.49;31.46;100529.52;2743187;84;21030;-92
2022/07/19 12:42:06;;;;;;;2.10;1.05;;;;;;;35.60;32.13;100527.52;2830635;82;20988;-92
2022/07/19 12:46:08;;;;;;;2.10;0.98;;;;;;;35.65;31.56;100520.55;2809435;82;21003;-92
2022/07/19 12:50:26;;;;;;;153.65;33.70;;;;;;;35.72;31.14;100521.61;2818234;82;20968;-93
2022/07/19 12:54:27;;;;;;;1.92;1.70;;;;;;;35.84;31.34;100522.03;2828062;83;21019;-91
2022/07/19 13:02:50;;;;;;;2.83;1.77;;;;;;;35.85;30.50;100518.15;2825711;83;21056;-88
2022/07/19 13:06:52;;;;;;;3.30;1.70;;;;;;;35.92;30.60;100503.17;2792346;83;20957;-89
2022/07/19 13:10:55;;;;;;;7.85;2.10;;;;;;;35.94;31.03;100500.93;2773886;85;20992;-92
2022/07/19 13:14:57;;;;;;;6.73;1.47;;;;;;;35.94;30.50;100496.20;2805742;83;20979;-88
2022/07/19 13:18:59;;;;;;;4.67;1.82;;;;;;;35.88;30.46;100489.08;2785391;84;21048;-91
2022/07/19 13:23:00;;;;;;;4.22;1.95;;;;;;;35.92;30.92;100485.18;2803833;83;21507;-91
2022/07/19 13:27:02;;;;;;;4.83;1.92;;;;;;;35.93;31.10;100479.91;2751057;83;20946;-89
2022/07/19 13:31:08;;;;;;;3.85;1.25;;;;;;;35.99;31.60;100481.50;2704221;83;20960;-89
2022/07/19 13:35:19;;;;;;;3.52;1.52;;;;;;;36.00;31.28;100479.00;2829339;79;21031;-91
2022/07/19 13:39:28;;;;;;;3.60;1.67;;;;;;;36.09;31.74;100477.83;2904080;80;21031;-92
2022/07/19 13:43:32;;;;;;;3.02;1.95;;;;;;;36.27;31.04;100467.95;2875688;80;21069;-91
2022/07/19 13:47:37;;;;;;;6.72;1.72;;;;;;;36.25;30.86;100471.00;2863655;79;21114;-92
2022/07/19 13:51:38;;;;;;;;;;;;;;;36.41;30.71;100473.59;2820745;82;21013;-92
2022/07/19 13:55:40;;;;;;;5.15;1.42;;;;;;;36.52;30.64;100467.36;2815107;83;20642;-91
2022/07/19 14:03:49;;;;;;;6.58;2.10;;;;;;;36.74;31.50;100455.70;2815702;82;21168;-90
2022/07/19 14:08:02;;;;;;;5.72;1.60;;;;;;;36.73;30.62;100459.60;2872294;80;21021;-90
2022/07/19 14:12:05;;;;;;;175.03;34.80;;;;;;;36.72;30.29;100451.03;2834425;81;21008;-89
2022/07/19 14:16:06;;;;;;;3.77;2.03;;;;;;;36.75;30.25;100449.63;2851365;81;21003;-93
2022/07/19 14:20:17;;;;;;;2.52;1.45;;;;;;;36.88;30.63;100449.69;2864263;81;21062;-91
2022/07/19 14:24:15;;;;;;;11.50;3.50;;;;;;;36.95;30.29;100452.09;2860423;81;20987;-93
2022/07/19 14:28:19;;;;;;;2.33;1.52;;;;;;;37.06;29.79;100431.99;2875601;81;21030;-89
2022/07/19 14:32:21;;;;;;;;;;;;;;;37.03;29.57;100438.14;2821939;81;20925;-90
2022/07/19 14:36:28;;;;;;;3.02;1.87;;;;;;;36.92;29.65;100435.23;2818424;82;20102;-92
2022/07/19 14:40:30;;;;;;;2.95;1.82;;;;;;;36.86;29.82;100432.54;2822104;82;21113;-92
2022/07/19 14:44:33;;;;;;;3.22;1.55;;;;;;;36.95;30.14;100434.63;2837561;81;21054;-90
2022/07/19 14:48:35;;;;;;;3.77;1.95;;;;;;;37.07;30.20;100422.55;2842175;81;21026;-90
2022/07/19 14:52:37;;;;;;;3.95;2.00;;;;;;;37.16;29.69;100421.30;2742741;83;21015;-91
2022/07/19 14:56:39;;;;;;;6.00;2.00;;;;;;;37.08;29.39;100424.77;2904664;80;20971;-90
2022/07/19 15:00:42;;;;;;;2.55;1.35;;;;;;;37.04;29.35;100419.00;2869116;80;21014;-90
2022/07/19 15:04:46;;;;;;;2.62;1.52;;;;;;;36.98;29.15;100415.45;2853484;81;21014;-91
2022/07/19 15:08:48;;;;;;;5.42;2.20;;;;;;;36.88;29.49;100420.59;2855129;81;21050;-91
2022/07/19 15:12:50;;;;;;;4.45;2.25;;;;;;;36.86;29.46;100415.91;2861752;81;20985;-91
2022/07/19 15:16:51;;;;;;;2.35;1.30;;;;;;;36.80;29.67;100417.13;2869271;81;20986;-90
2022/07/19 15:33:44;;;;;;;4.20;1.65;;;;;;;36.91;29.23;100405.87;2846111;80;68320;-91
2022/07/19 15:42:00;;;;;;;5.10;2.17;;;;;;;36.70;29.50;100404.25;2835401;78;66061;-94
2022/07/19 15:46:01;;;;;;;3.58;1.65;;;;;;;36.53;30.03;100405.33;2904474;81;21002;-91
2022/07/19 15:50:06;;;;;;;5.95;1.77;;;;;;;36.37;29.91;100404.12;2908439;80;21002;-92
2022/07/19 15:58:18;;;;;;;5.65;2.05;;;;;;;35.98;29.93;100412.05;2904197;80;68245;-90
2022/07/19 16:02:20;;;;;;;2.50;1.57;;;;;;;35.84;30.15;100405.02;2900249;79;21039;-89
2022/07/19 16:06:23;;;;;;;3.05;1.87;;;;;;;35.67;30.93;100407.67;2886204;79;20984;-88
2022/07/19 16:10:28;;;;;;;2.58;2.02;;;;;;;35.63;31.18;100401.09;2815289;82;20994;-89
2022/07/19 16:14:30;;;;;;;5.37;2.00;;;;;;;35.70;30.37;100402.13;2859145;82;20975;-88
2022/07/19 16:18:32;;;;;;;7.22;2.45;;;;;;;35.68;30.65;100397.45;2901170;80;21006;-86
2022/07/19 16:22:33;;;;;;;7.12;1.85;;;;;;;35.60;30.62;100397.53;2904318;82;20991;-89
2022/07/19 16:26:36;;;;;;;2.25;2.02;;;;;;;35.51;30.11;100397.31;2890998;80;21038;-88
2022/07/19 16:30:38;;;;;;;4.37;2.00;;;;;;;35.52;30.37;100392.07;2905629;80;21027;-90
2022/07/19 16:34:40;;;;;;;2.65;1.98;;;;;;;35.55;30.14;100395.63;2848146;80;21451;-92
2022/07/19 16:38:42;;;;;;;7.78;2.22;;;;;;;35.57;30.10;100391.17;2896740;80;20988;-88
2022/07/19 16:42:43;;;;;;;2.10;1.60;;;;;;;35.55;30.15;100393.41;2888493;80;20996;-91
2022/07/19 16:46:45;;;;;;;8.15;2.95;;;;;;;35.47;30.08;100394.83;2901620;82;20989;-87
2022/07/19 16:50:47;;;;;;;12.78;3.12;;;;;;;35.40;30.26;100387.45;2890004;82;20992;-88
2022/07/19 16:54:48;;;;;;;4.60;2.12;;;;;;;35.30;30.31;100386.98;2893752;80;21022;-89
2022/07/19 16:58:50;;;;;;;3.20;1.80;;;;;;;35.21;30.64;100384.59;2885585;82;21023;-86
2022/07/19 17:02:55;;;;;;;4.70;2.35;;;;;;;35.08;30.81;100391.05;2879678;80;21401;-88
2022/07/19 17:07:02;;;;;;;4.60;2.75;;;;;;;34.99;30.70;100395.52;2875239;80;21002;-85
2022/07/19 17:11:02;;;;;;;6.80;2.50;;;;;;;34.87;31.64;100395.31;2849517;82;20948;-86
2022/07/19 17:15:04;;;;;;;5.97;2.55;;;;;;;34.77;32.61;100387.66;2879021;80;20996;-86
2022/07/19 17:19:06;;;;;;;7.20;3.37;;;;;;;34.62;32.03;100386.64;2878931;80;21613;-88
2022/07/19 17:23:08;;;;;;;8.35;3.08;;;;;;;34.50;32.13;100385.61;2874824;80;20999;-89
2022/07/19 17:27:10;;;;;;;11.90;3.02;;;;;;;34.35;32.71;100389.79;2849845;82;20983;-89
2022/07/19 17:31:12;;;;;;;7.90;3.10;;;;;;;34.25;32.63;100392.05;2884978;80;20988;-90
2022/07/19 17:35:14;;;;;;;8.08;2.40;;;;;;;34.13;32.76;100393.75;2865408;80;20945;-91
2022/07/19 17:39:16;;;;;;;7.42;2.55;;;;;;;33.99;33.57;100395.72;2867927;80;21062;-87
2022/07/19 17:43:17;;;;;;;7.33;2.77;;;;;;;33.89;33.58;100392.41;2882437;80;21000;-89
2022/07/19 17:47:20;;;;;;;4.75;1.77;;;;;;;33.76;34.11;100401.30;2846981;81;21035;-87
2022/07/19 17:51:22;;;;;;;11.33;2.85;;;;;;;33.64;34.00;100405.73;2895174;80;21039;-91
2022/07/19 17:55:23;;;;;;;6.37;2.00;;;;;;;33.51;34.15;100402.16;2888592;81;20989;-93
2022/07/19 17:59:25;;;;;;;6.83;3.37;;;;;;;33.34;34.43;100406.00;2886291;82;21003;-92
2022/07/19 18:03:27;;;;;;;11.55;2.75;;;;;;;33.21;34.67;100412.89;2782939;82;20992;-92
2022/07/19 18:07:29;;;;;;;8.78;2.33;;;;;;;33.05;34.50;100417.02;2877125;80;21055;-87
2022/07/19 18:11:31;;;;;;;8.50;3.25;;;;;;;32.92;34.70;100417.56;2854565;80;21008;-87
2022/07/19 18:15:33;;;;;;;10.03;2.45;;;;;;;32.80;34.89;100416.95;2875767;80;20965;-87
2022/07/19 18:19:36;;;;;;;8.70;3.42;;;;;;;32.67;35.02;100418.30;2887122;81;21039;-89
2022/07/19 18:23:38;;;;;;;10.03;2.67;;;;;;;32.53;35.33;100415.24;2874432;82;20972;-88
2022/07/19 18:27:39;;;;;;;10.03;2.70;;;;;;;32.39;35.56;100417.64;2851974;81;20991;-89
2022/07/19 18:31:41;;;;;;;11.97;3.75;;;;;;;32.22;35.75;100424.14;2864704;81;21487;-90
2022/07/19 18:35:45;;;;;;;12.18;4.67;;;;;;;32.05;36.15;100425.19;2886574;81;20976;-87
2022/07/19 18:39:47;;;;;;;11.83;3.90;;;;;;;31.89;36.25;100422.06;2872362;80;21088;-87
2022/07/19 18:43:53;;;;;;;62.58;12.07;;;;;;;31.67;37.31;100432.63;2861562;81;20988;-90
2022/07/19 18:48:40;;;;;;;4.05;2.50;;;;;;;31.31;37.54;100432.33;2878194;80;21015;-86
2022/07/19 18:53:41;;;;;;;;;;;;;;;;;;;;;
2022/07/19 18:57:38;;;;;;;9.20;4.05;;;;;;;30.77;38.15;100438.09;2875426;80;20960;-88
2022/07/19 19:01:42;;;;;;;17.30;4.35;;;;;;;30.52;38.80;100438.05;2875308;80;20992;-90
2022/07/19 19:05:44;;;;;;;15.48;4.80;;;;;;;30.32;39.29;100439.98;2863007;82;21027;-88
2022/07/19 19:09:46;;;;;;;8.75;3.62;;;;;;;30.16;39.58;100447.19;2877625;80;20944;-87
2022/07/19 19:13:48;;;;;;;19.20;5.00;;;;;;;29.89;40.32;100450.08;2841349;81;20995;-85
2022/07/19 19:17:50;;;;;;;21.73;4.85;;;;;;;29.43;41.37;100458.94;2876985;80;21039;-85
2022/07/19 19:21:51;;;;;;;12.73;3.62;;;;;;;29.11;41.47;100467.13;2877146;81;21015;-89
2022/07/19 19:25:58;;;;;;;20.40;5.97;;;;;;;28.92;41.80;100468.70;2878687;81;21015;-87
2022/07/19 19:29:59;;;;;;;15.90;4.42;;;;;;;28.70;41.97;100467.67;2838991;80;21047;-90
2022/07/19 19:34:04;;;;;;;19.02;5.50;;;;;;;28.51;42.21;100476.05;2873835;80;20956;-90
2022/07/19 19:38:06;;;;;;;213.60;45.38;;;;;;;28.26;42.50;100482.60;2874623;80;21462;-90
2022/07/19 19:42:20;;;;;;;312.98;62.93;;;;;;;27.96;43.40;100480.81;2846481;82;20988;-90
2022/07/19 19:46:19;;;;;;;361.30;71.72;;;;;;;27.71;43.85;100485.97;2789243;83;21023;-89
2022/07/19 19:50:20;;;;;;;332.25;74.25;;;;;;;27.46;44.78;100483.39;2805344;82;21038;-92
2022/07/19 19:54:21;;;;;;;355.65;77.92;;;;;;;27.21;44.98;100489.31;2844531;82;20982;-90
2022/07/19 19:58:23;;;;;;;170.35;36.70;;;;;;;27.06;45.11;100480.18;2852199;82;21022;-90
2022/07/19 20:02:24;;;;;;;30.77;7.47;;;;;;;26.93;45.53;100488.02;2906281;79;20976;-90
2022/07/19 20:06:26;;;;;;;24.47;6.40;;;;;;;26.77;46.01;100485.89;2829090;82;21062;-91
2022/07/19 20:10:27;;;;;;;21.15;6.72;;;;;;;26.64;45.84;100487.70;2851895;82;21058;-90
2022/07/19 20:14:29;;;;;;;22.30;7.00;;;;;;;26.39;46.31;100459.14;2872772;81;21097;-90
2022/07/19 20:18:31;;;;;;;50.30;9.35;;;;;;;26.43;46.87;100484.89;2891754;80;20988;-90
2022/07/19 20:22:33;;;;;;;37.03;7.58;;;;;;;26.28;48.23;100492.08;2868911;82;20956;-89
2022/07/19 20:26:35;;;;;;;16.77;5.50;;;;;;;26.03;48.25;100491.56;2850970;81;21506;-90
2022/07/19 20:30:36;;;;;;;42.33;8.48;;;;;;;25.81;48.71;100497.41;2942610;79;20998;-90
2022/07/19 20:34:38;;;;;;;32.13;8.78;;;;;;;25.65;48.62;100489.78;2946443;79;21042;-89
2022/07/19 20:38:39;;;;;;;27.10;6.60;;;;;;;25.60;48.46;100503.23;2857528;81;20978;-92
2022/07/19 20:42:41;;;;;;;19.50;4.87;;;;;;;25.50;48.91;100495.55;2866922;81;21011;-89
2022/07/19 20:46:43;;;;;;;15.10;4.95;;;;;;;25.37;49.84;100502.72;2813845;81;21003;-90
2022/07/19 20:50:44;;;;;;;27.42;6.17;;;;;;;25.17;50.60;100493.84;2870111;81;21050;-90
2022/07/19 20:54:46;;;;;;;149.25;34.60;;;;;;;25.04;50.89;100504.27;2875714;82;21016;-91
2022/07/19 20:58:47;;;;;;;33.98;8.95;;;;;;;24.95;50.92;100501.78;2802978;82;21056;-91
2022/07/19 21:02:49;;;;;;;17.57;5.58;;;;;;;24.91;51.14;100507.34;2811395;83;21012;-89
2022/07/19 21:06:51;;;;;;;13.32;4.08;;;;;;;24.86;51.15;100514.48;2804622;83;21547;-88
2022/07/19 21:10:52;;;;;;;19.12;4.53;;;;;;;24.74;51.94;100511.56;2821443;83;21001;-91
2022/07/19 21:14:54;;;;;;;10.25;3.40;;;;;;;24.65;52.30;100513.69;2819294;83;20968;-90
2022/07/19 21:18:55;;;;;;;22.58;4.90;;;;;;;24.58;52.26;100513.73;2822149;83;21005;-92
2022/07/19 21:22:57;;;;;;;20.77;4.15;;;;;;;24.55;51.80;100514.13;2802560;83;20968;-89
2022/07/19 21:26:59;;;;;;;21.40;5.85;;;;;;;24.53;51.72;100504.00;2810467;83;21520;-87
2022/07/19 21:31:00;;;;;;;11.55;4.83;;;;;;;24.52;51.85;100511.84;2799927;83;21004;-90
2022/07/19 21:35:02;;;;;;;19.17;5.75;;;;;;;24.52;51.94;100507.77;2813939;83;20968;-90
2022/07/19 21:39:10;;;;;;;11.45;3.92;;;;;;;24.55;51.67;100500.53;2798338;82;21008;-89
2022/07/19 21:43:12;;;;;;;10.00;4.50;;;;;;;24.60;51.62;100507.55;2813699;83;22018;-90
2022/07/19 21:47:13;;;;;;;8.15;4.70;;;;;;;24.57;51.60;100500.34;2816940;83;21053;-89
2022/07/19 21:51:15;;;;;;;7.60;3.62;;;;;;;24.54;51.61;100508.38;2787861;83;21571;-90
2022/07/19 21:55:16;;;;;;;11.53;4.00;;;;;;;24.48;51.70;100507.89;2812201;83;20980;-89
2022/07/19 21:59:18;;;;;;;14.83;4.30;;;;;;;24.39;51.60;100509.48;2849189;81;21003;-89
2022/07/19 22:03:19;;;;;;;10.15;4.20;;;;;;;24.21;53.21;100520.17;2850325;81;21048;-88
2022/07/19 22:07:21;;;;;;;8.60;3.40;;;;;;;24.02;52.68;100524.05;2895018;81;20970;-90
2022/07/19 22:11:22;;;;;;;11.18;3.45;;;;;;;23.90;53.11;100522.45;2894945;80;20975;-88
2022/07/19 22:15:23;;;;;;;12.68;4.75;;;;;;;23.82;53.39;100526.20;2885863;80;21046;-89
2022/07/19 22:19:25;;;;;;;13.20;4.10;;;;;;;23.79;53.29;100523.91;2852672;80;21011;-88
2022/07/19 22:38:20;;;;;;;8.30;3.25;;;;;;;23.28;55.97;100532.58;2788521;81;21069;-83
2022/07/19 22:42:21;;;;;;;10.70;4.72;;;;;;;23.02;56.41;100537.67;2824489;82;21041;-83
2022/07/19 22:46:22;;;;;;;9.55;4.50;;;;;;;22.85;57.37;100537.69;2795393;82;21004;-83
2022/07/19 22:50:25;;;;;;;8.60;4.47;;;;;;;22.78;56.83;100529.52;2872790;82;21017;-83
2022/07/19 22:54:27;;;;;;;10.45;4.28;;;;;;;22.72;58.28;100528.47;2874929;82;21005;-83
2022/07/19 22:58:30;;;;;;;9.58;4.17;;;;;;;22.70;58.89;100537.83;2874917;82;21017;-83
2022/07/19 23:02:31;;;;;;;11.75;4.90;;;;;;;22.67;59.02;100536.34;2783855;82;20973;-83
2022/07/19 23:06:32;;;;;;;8.25;4.35;;;;;;;22.55;59.70;100538.78;2857996;82;21065;-82
2022/07/19 23:10:35;;;;;;;18.80;4.72;;;;;;;22.34;60.80;100543.20;2874509;82;20989;-83
2022/07/19 23:14:36;;;;;;;12.07;4.58;;;;;;;22.21;61.43;100541.77;2851946;82;21579;-82
2022/07/19 23:18:38;;;;;;;9.70;4.58;;;;;;;22.08;62.15;100550.09;2846887;82;21009;-82
2022/07/19 23:22:39;;;;;;;7.15;4.12;;;;;;;22.06;61.18;100549.96;2858034;82;21016;-82
2022/07/19 23:26:40;;;;;;;15.93;5.58;;;;;;;22.07;60.79;100551.13;2857164;82;21045;-83
2022/07/19 23:30:41;;;;;;;8.25;4.40;;;;;;;22.08;60.32;100554.66;2856996;81;21030;-83
2022/07/19 23:34:43;;;;;;;9.28;3.87;;;;;;;22.02;60.16;100553.59;2856690;82;21544;-83
2022/07/19 23:48:04;;;;;;;12.95;4.78;;;;;;;21.61;61.59;100571.78;2780153;84;21010;-82